Terminal Aerodrome Forecast
Issued by NWS Cleveland, OH

Home | Current Version | Previous Version | Text Only | Print | Product List | Glossary Off
Versions: 1 2 3 4 5 6 7 8 9 10 11 12 13 14 15 16 17

000
FTUS41 KCLE 241120
TAFCAK
TAF
KCAK 241120Z 2412/2512 16003KT P6SM BKN250
     FM241600 20012KT P6SM SCT050 BKN250
     FM242000 20012KT P6SM BKN050 BKN150
     FM250000 20010KT P6SM VCTS OVC050CB
     FM250600 22008KT 5SM -SHRA BR OVC035=

USA.gov is the U.S. government's official web portal to all federal, state and local government web resources and services.